Time;durP1;ratioP1;P1;durP2;ratioP2;P2;SDS_P1;SDS_P2;PMS_P1;PMS_P2;Temp;Humidity;BMP_temperature;BMP_pressure;BME280_temperature;BME280_humidity;BME280_pressure;Samples;Min_cycle;Max_cycle;Signal;HPM_P1;HPM_P2
2022/12/05 00:01:34;;;;;;;44.45;23.25;;;;;;;0.76;88.11;98436.48;1697608;83;21081;-77
2022/12/05 00:04:05;;;;;;;50.85;25.62;;;;;;;0.83;88.28;98432.66;1698174;83;21013;-77
2022/12/05 00:06:34;;;;;;;48.33;25.20;;;;;;;0.87;88.28;98443.61;1696464;83;21437;-77
2022/12/05 00:09:04;;;;;;;50.88;24.95;;;;;;;0.90;88.18;98440.61;1697621;83;21021;-77
2022/12/05 00:11:35;;;;;;;52.27;25.20;;;;;;;0.92;88.21;98444.11;1700671;83;21470;-77
2022/12/05 00:14:04;;;;;;;51.68;26.07;;;;;;;0.95;88.42;98436.75;1698209;83;21399;-77
2022/12/05 00:16:35;;;;;;;52.30;26.40;;;;;;;0.98;88.16;98445.95;1698768;83;21073;-77
2022/12/05 00:19:04;;;;;;;50.35;25.32;;;;;;;1.01;88.41;98446.42;1709756;83;21016;-78
2022/12/05 00:21:33;;;;;;;47.75;24.27;;;;;;;1.04;88.39;98455.18;1724036;82;21033;-77
2022/12/05 00:24:01;;;;;;;45.75;23.92;;;;;;;1.10;88.50;98452.21;1698094;83;21439;-78
2022/12/05 00:26:29;;;;;;;48.87;25.90;;;;;;;1.09;88.31;98446.55;1712507;83;21055;-77
2022/12/05 00:28:57;;;;;;;44.53;24.70;;;;;;;1.06;88.36;98443.47;1704063;83;21000;-77
2022/12/05 00:31:25;;;;;;;49.38;24.12;;;;;;;1.07;88.49;98450.88;1697425;83;21028;-77
2022/12/05 00:33:53;;;;;;;41.25;22.62;;;;;;;1.08;88.71;98452.63;1697725;83;21386;-77
2022/12/05 00:36:25;;;;;;;47.30;23.77;;;;;;;1.09;88.45;98460.91;1702597;83;21043;-78
2022/12/05 00:38:53;;;;;;;43.87;23.62;;;;;;;1.09;88.36;98456.98;1694209;83;20962;-77
2022/12/05 00:41:24;;;;;;;44.65;23.38;;;;;;;1.07;88.01;98462.18;1698081;83;21492;-77
2022/12/05 00:43:52;;;;;;;41.18;22.50;;;;;;;1.09;88.35;98466.12;1697598;83;21455;-77
2022/12/05 00:46:23;;;;;;;47.27;23.05;;;;;;;1.09;88.07;98459.19;1697071;83;21030;-77
2022/12/05 00:48:52;;;;;;;39.35;21.73;;;;;;;1.06;87.96;98455.20;1697441;83;21420;-77
2022/12/05 00:51:29;;;;;;;48.48;22.93;;;;;;;1.08;88.17;98455.23;1702725;82;20983;-77
2022/12/05 00:54:06;;;;;;;41.48;21.40;;;;;;;1.08;88.19;98448.71;1697496;83;21483;-77
2022/12/05 00:56:33;;;;;;;41.95;22.25;;;;;;;1.01;88.00;98454.26;1696263;83;21035;-79
2022/12/05 00:59:02;;;;;;;40.63;22.50;;;;;;;1.04;88.26;98458.23;1675788;84;21435;-75
2022/12/05 01:01:36;;;;;;;45.48;23.20;;;;;;;1.04;88.36;98451.70;1703392;83;21442;-76
2022/12/05 01:04:09;;;;;;;45.15;23.80;;;;;;;1.07;88.29;98449.13;1702682;83;21013;-75
2022/12/05 01:06:37;;;;;;;42.78;22.90;;;;;;;1.07;88.02;98454.80;1701209;83;20988;-75
2022/12/05 01:09:07;;;;;;;46.10;20.90;;;;;;;1.04;88.21;98462.15;1697554;83;21030;-75
2022/12/05 01:11:34;;;;;;;39.98;22.05;;;;;;;1.07;88.29;98460.87;1697720;83;20986;-75
2022/12/05 01:14:01;;;;;;;45.73;22.82;;;;;;;1.07;88.11;98462.63;1697683;83;21298;-75
2022/12/05 01:16:32;;;;;;;46.58;22.95;;;;;;;1.05;88.12;98460.84;1702471;83;21498;-75
2022/12/05 01:19:03;;;;;;;44.33;22.10;;;;;;;1.06;88.15;98456.52;1697410;83;21057;-75
2022/12/05 01:21:31;;;;;;;41.85;21.90;;;;;;;1.06;87.90;98456.52;1698654;82;21045;-75
2022/12/05 01:23:58;;;;;;;45.10;21.93;;;;;;;1.02;88.19;98450.79;1697442;83;21101;-75
2022/12/05 01:26:26;;;;;;;42.15;21.85;;;;;;;1.06;88.33;98449.98;1697610;83;21056;-75
2022/12/05 01:28:54;;;;;;;43.08;22.13;;;;;;;1.12;88.16;98447.47;1702486;83;21016;-75
2022/12/05 01:31:28;;;;;;;37.60;20.85;;;;;;;1.14;88.07;98444.89;1700937;83;21043;-78
2022/12/05 01:33:58;;;;;;;40.52;20.43;;;;;;;1.17;88.26;98449.72;1700894;83;21002;-78
2022/12/05 01:36:27;;;;;;;38.63;20.17;;;;;;;1.22;87.96;98450.22;1695830;83;21077;-78
2022/12/05 01:38:57;;;;;;;40.88;20.10;;;;;;;1.19;88.01;98448.44;1700524;83;20965;-78
2022/12/05 01:41:36;;;;;;;40.30;21.55;;;;;;;1.20;88.15;98437.59;1694673;83;20980;-77
2022/12/05 01:44:16;;;;;;;41.92;20.65;;;;;;;1.23;88.10;98442.42;1702553;83;21089;-77
2022/12/05 01:46:47;;;;;;;35.08;19.05;;;;;;;1.26;88.12;98442.89;1703679;84;21073;-78
2022/12/05 01:49:25;;;;;;;39.80;20.92;;;;;;;1.29;88.21;98447.73;1714532;83;21052;-77
2022/12/05 01:51:57;;;;;;;39.65;20.45;;;;;;;1.31;87.69;98441.23;1705814;84;20979;-77
2022/12/05 01:54:24;;;;;;;40.55;19.57;;;;;;;1.29;88.04;98433.81;1710441;83;21057;-78
2022/12/05 01:57:02;;;;;;;37.70;20.97;;;;;;;1.28;88.12;98437.25;1713478;84;21010;-78
2022/12/05 01:59:34;;;;;;;38.70;19.40;;;;;;;1.29;88.03;98435.12;1714239;83;20989;-76
2022/12/05 02:02:03;;;;;;;40.00;21.27;;;;;;;1.31;87.98;98424.25;1711336;83;20965;-77
2022/12/05 02:04:35;;;;;;;35.98;19.12;;;;;;;1.36;88.05;98417.80;1712353;83;20962;-77
2022/12/05 02:07:01;;;;;;;39.65;19.65;;;;;;;1.38;87.78;98414.77;1706791;84;21553;-77
2022/12/05 02:09:28;;;;;;;37.95;19.27;;;;;;;1.40;88.00;98423.08;1696192;84;21385;-77
2022/12/05 02:11:59;;;;;;;38.73;20.25;;;;;;;1.43;87.95;98424.44;1718879;83;21058;-77
2022/12/05 02:14:31;;;;;;;37.42;19.73;;;;;;;1.50;88.26;98421.91;1712200;83;21060;-77
2022/12/05 02:17:30;;;;;;;32.15;18.48;;;;;;;1.57;88.30;98431.56;1695612;83;21075;-77
2022/12/05 02:20:24;;;;;;;33.63;17.15;;;;;;;1.62;88.18;98434.27;1687662;84;21024;-76
2022/12/05 02:23:14;;;;;;;34.78;18.12;;;;;;;1.57;87.93;98434.18;1686746;84;21020;-76
2022/12/05 02:26:12;;;;;;;34.10;17.95;;;;;;;1.58;88.04;98430.73;1700548;83;21020;-77
2022/12/05 02:29:16;;;;;;;34.27;16.62;;;;;;;1.61;88.05;98437.73;1700661;83;22364;-77
2022/12/05 02:31:54;;;;;;;31.10;17.15;;;;;;;1.61;87.96;98433.82;1710706;82;21466;-77
2022/12/05 02:34:44;;;;;;;37.42;18.00;;;;;;;1.52;87.78;98441.97;1712539;82;21059;-76
2022/12/05 02:37:19;;;;;;;38.05;18.87;;;;;;;1.53;88.25;98430.66;1713104;83;21025;-77
2022/12/05 02:39:58;;;;;;;33.67;17.62;;;;;;;1.54;88.12;98435.47;1719993;83;21483;-77
2022/12/05 02:42:47;;;;;;;40.25;19.05;;;;;;;1.50;88.01;98424.07;1717326;83;21006;-77
2022/12/05 02:45:18;;;;;;;35.13;18.73;;;;;;;1.45;87.82;98425.33;1703561;83;21471;-76
2022/12/05 02:47:53;;;;;;;35.50;17.73;;;;;;;1.44;88.03;98430.11;1715691;83;21416;-77
2022/12/05 02:50:25;;;;;;;35.05;17.15;;;;;;;1.43;88.13;98434.00;1697292;83;21000;-76
2022/12/05 02:52:57;;;;;;;31.62;17.00;;;;;;;1.43;88.21;98430.08;1698762;83;20997;-76
2022/12/05 02:55:26;;;;;;;34.10;18.30;;;;;;;1.45;88.12;98433.58;1699005;83;21001;-76
2022/12/05 02:57:57;;;;;;;37.90;18.92;;;;;;;1.44;87.97;98429.22;1719053;83;21051;-76
2022/12/05 03:00:23;;;;;;;38.63;20.62;;;;;;;1.42;87.80;98427.89;1698668;83;21021;-76
2022/12/05 03:02:55;;;;;;;38.65;20.48;;;;;;;1.41;87.76;98431.36;1697787;82;21394;-76
2022/12/05 03:05:39;;;;;;;36.58;20.23;;;;;;;1.40;87.76;98428.72;1702779;83;20970;-76
2022/12/05 03:08:10;;;;;;;40.92;20.05;;;;;;;1.39;87.93;98430.47;1696143;82;21479;-76
2022/12/05 03:10:41;;;;;;;41.50;20.37;;;;;;;1.41;87.92;98431.81;1698748;83;21058;-76
2022/12/05 03:13:18;;;;;;;36.73;19.73;;;;;;;1.43;88.03;98428.36;1699586;83;21072;-76
2022/12/05 03:15:52;;;;;;;;;;;;;;;1.42;88.14;98431.80;1701289;83;21053;-77
2022/12/05 03:18:26;;;;;;;36.73;19.45;;;;;;;1.46;88.23;98436.67;1698251;83;20416;-76
2022/12/05 03:21:16;;;;;;;37.88;20.05;;;;;;;1.48;88.23;98434.94;1698661;83;21069;-77
2022/12/05 03:23:48;;;;;;;36.53;19.92;;;;;;;1.50;88.26;98435.83;1715277;83;21125;-76
2022/12/05 03:26:29;;;;;;;36.83;19.62;;;;;;;1.57;88.31;98432.88;1698738;83;21050;-77
2022/12/05 03:29:21;;;;;;;35.05;18.40;;;;;;;1.53;88.12;98441.55;1685897;84;21038;-76
2022/12/05 03:32:09;;;;;;;38.17;19.00;;;;;;;1.51;87.97;98435.41;1723013;82;21405;-76
2022/12/05 03:34:50;;;;;;;34.67;18.50;;;;;;;1.56;88.20;98446.80;1698571;83;21053;-76
2022/12/05 03:37:47;;;;;;;35.30;18.92;;;;;;;1.56;88.02;98436.35;1698619;83;21021;-77
2022/12/05 03:40:43;;;;;;;32.33;18.50;;;;;;;1.59;88.07;98432.48;1694631;83;21412;-77
2022/12/05 03:43:40;;;;;;;35.90;18.87;;;;;;;1.62;88.07;98439.48;1676801;84;20978;-77
2022/12/05 03:46:23;;;;;;;38.38;19.73;;;;;;;1.59;88.04;98453.39;1698842;83;21029;-76
2022/12/05 03:49:04;;;;;;;34.08;18.62;;;;;;;1.59;88.06;98449.47;1680234;84;21061;-76
2022/12/05 03:51:36;;;;;;;36.75;19.57;;;;;;;1.61;88.09;98448.19;1698884;83;21009;-77
2022/12/05 03:54:11;;;;;;;35.90;19.07;;;;;;;1.63;88.17;98441.23;1698871;83;21506;-76
2022/12/05 03:56:45;;;;;;;36.38;19.07;;;;;;;1.65;87.92;98444.31;1690871;83;21528;-78
2022/12/05 03:59:41;;;;;;;36.33;18.95;;;;;;;1.68;87.96;98446.98;1719334;83;20992;-77
2022/12/05 04:02:13;;;;;;;36.77;18.17;;;;;;;1.73;88.02;98448.78;1692602;82;21039;-77
2022/12/05 04:04:57;;;;;;;35.78;18.23;;;;;;;1.75;87.84;98454.48;1692489;84;21464;-77
2022/12/05 04:07:27;;;;;;;37.23;18.48;;;;;;;1.76;87.98;98450.11;1698305;83;20997;-77
2022/12/05 04:09:58;;;;;;;30.97;17.37;;;;;;;1.72;87.95;98449.20;1724789;83;21032;-78
2022/12/05 04:12:30;;;;;;;32.53;17.95;;;;;;;1.74;88.12;98454.45;1679966;84;21039;-78
2022/12/05 04:15:05;;;;;;;36.95;19.30;;;;;;;1.76;88.23;98441.86;1667379;85;21058;-78
2022/12/05 04:17:49;;;;;;;30.00;17.48;;;;;;;1.84;88.49;98439.34;1697745;83;21021;-78
2022/12/05 04:23:16;;;;;;;35.38;17.60;;;;;;;1.92;88.14;98448.58;1698677;83;21030;-76
2022/12/05 04:26:15;;;;;;;29.57;16.85;;;;;;;1.90;87.99;98454.20;1698762;83;20986;-77
2022/12/05 04:28:50;;;;;;;33.20;18.45;;;;;;;1.96;88.36;98456.92;1703584;83;21004;-77
2022/12/05 04:31:28;;;;;;;30.45;17.20;;;;;;;2.02;88.44;98453.06;1698628;83;21455;-77
2022/12/05 04:34:04;;;;;;;33.73;18.67;;;;;;;2.04;88.26;98449.16;1698155;82;21018;-77
2022/12/05 04:36:48;;;;;;;36.38;19.40;;;;;;;2.02;88.09;98450.45;1712169;82;21006;-77
2022/12/05 04:39:25;;;;;;;34.83;19.02;;;;;;;2.02;88.04;98454.37;1679930;83;21037;-76
2022/12/05 04:42:03;;;;;;;37.55;20.45;;;;;;;2.04;88.25;98445.24;1690792;83;21013;-76
2022/12/05 04:44:34;;;;;;;33.18;20.12;;;;;;;2.05;88.29;98447.88;1698730;83;20978;-77
2022/12/05 04:47:04;;;;;;;34.25;18.85;;;;;;;2.04;88.22;98442.62;1708918;83;21039;-76
2022/12/05 04:49:34;;;;;;;34.58;19.17;;;;;;;2.08;88.26;98450.96;1698868;83;21492;-77
2022/12/05 04:52:06;;;;;;;33.92;18.82;;;;;;;2.05;88.02;98445.27;1698614;83;21022;-76
2022/12/05 04:54:44;;;;;;;36.48;18.37;;;;;;;2.03;87.74;98450.89;1698877;83;21419;-77
2022/12/05 04:57:22;;;;;;;34.75;18.87;;;;;;;2.00;87.80;98442.14;1716233;83;21031;-77
2022/12/05 04:59:49;;;;;;;33.23;19.77;;;;;;;1.97;87.64;98441.25;1722845;83;21029;-77
2022/12/05 05:02:21;;;;;;;36.53;19.10;;;;;;;1.92;87.53;98444.25;1698273;82;21467;-77
2022/12/05 05:04:51;;;;;;;36.38;19.55;;;;;;;1.91;87.46;98447.69;1697129;83;21101;-77
2022/12/05 05:07:19;;;;;;;31.60;19.50;;;;;;;1.88;87.55;98445.48;1700431;83;21028;-77
2022/12/05 05:09:46;;;;;;;39.55;20.85;;;;;;;1.88;87.62;98446.78;1698813;83;21002;-77
2022/12/05 05:12:12;;;;;;;35.33;19.73;;;;;;;1.90;87.67;98448.55;1701285;83;21005;-77
2022/12/05 05:14:39;;;;;;;36.05;19.73;;;;;;;1.92;87.66;98444.66;1709943;83;21013;-76
2022/12/05 05:17:05;;;;;;;35.15;20.25;;;;;;;1.90;87.66;98442.02;1702995;83;20973;-76
2022/12/05 05:19:35;;;;;;;50.65;26.48;;;;;;;1.94;87.82;98449.47;1698710;83;21005;-77
2022/12/05 05:22:01;;;;;;;51.55;25.20;;;;;;;1.95;87.66;98459.09;1698830;83;21010;-77
2022/12/05 05:24:28;;;;;;;35.40;19.42;;;;;;;1.95;87.81;98459.09;1698936;83;21060;-76
2022/12/05 05:26:54;;;;;;;39.95;20.88;;;;;;;1.95;87.73;98464.31;1704509;83;21049;-76
2022/12/05 05:29:24;;;;;;;41.98;22.17;;;;;;;1.98;87.74;98471.77;1698857;83;21006;-76
2022/12/05 05:31:51;;;;;;;39.53;22.75;;;;;;;2.01;87.89;98467.41;1705949;82;21417;-76
2022/12/05 05:34:17;;;;;;;48.60;24.15;;;;;;;2.02;87.85;98459.59;1714621;82;21032;-77
2022/12/05 05:36:44;;;;;;;41.73;23.87;;;;;;;2.04;87.90;98458.31;1701314;83;22311;-77
2022/12/05 05:39:14;;;;;;;39.75;22.27;;;;;;;2.06;87.69;98463.13;1679046;83;21057;-77
2022/12/05 05:41:42;;;;;;;39.00;22.22;;;;;;;2.06;87.85;98466.63;1698678;83;21009;-77
2022/12/05 05:44:10;;;;;;;42.65;23.45;;;;;;;2.08;87.88;98466.20;1698939;83;21002;-77
2022/12/05 05:46:38;;;;;;;45.63;24.10;;;;;;;2.12;87.93;98472.38;1709414;83;21092;-77
2022/12/05 05:49:05;;;;;;;41.30;23.15;;;;;;;2.11;87.81;98464.95;1686281;84;21010;-77
2022/12/05 05:51:32;;;;;;;49.42;24.82;;;;;;;2.14;87.72;98468.44;1698942;83;21367;-77
2022/12/05 05:54:00;;;;;;;43.40;24.63;;;;;;;2.16;87.64;98477.20;1714708;83;20987;-77
2022/12/05 05:56:28;;;;;;;54.20;28.70;;;;;;;2.17;87.80;98477.22;1702550;83;21033;-77
2022/12/05 05:59:01;;;;;;;47.60;26.77;;;;;;;2.20;87.86;98477.69;1698777;83;20970;-77
2022/12/05 06:01:29;;;;;;;51.75;27.25;;;;;;;2.23;87.87;98481.21;1699371;82;21020;-77
2022/12/05 06:03:56;;;;;;;46.73;25.95;;;;;;;2.24;87.63;98481.66;1710729;83;21016;-76
2022/12/05 06:06:25;;;;;;;46.75;26.80;;;;;;;2.24;87.48;98475.53;1706481;82;20977;-77
2022/12/05 06:08:53;;;;;;;50.15;26.75;;;;;;;2.24;87.65;98472.91;1698626;83;21407;-76
2022/12/05 06:11:24;;;;;;;47.78;25.75;;;;;;;2.25;87.39;98473.39;1698795;83;20974;-76
2022/12/05 06:13:54;;;;;;;45.45;26.25;;;;;;;2.24;87.59;98471.61;1709967;83;20965;-77
2022/12/05 06:16:21;;;;;;;47.67;26.68;;;;;;;2.26;87.61;98476.86;1710063;83;21021;-77
2022/12/05 06:18:48;;;;;;;52.75;27.98;;;;;;;2.27;87.53;98470.34;1698782;83;21514;-77
2022/12/05 06:21:15;;;;;;;54.88;27.65;;;;;;;2.29;87.41;98480.83;1698926;83;20949;-77
2022/12/05 06:23:42;;;;;;;51.08;27.10;;;;;;;2.32;87.52;98480.88;1700635;83;21326;-77
2022/12/05 06:26:15;;;;;;;50.35;26.65;;;;;;;2.36;87.52;98480.92;1701812;83;20946;-77
2022/12/05 06:28:43;;;;;;;50.50;26.33;;;;;;;2.37;87.22;98483.12;1699010;83;21053;-77
2022/12/05 06:31:14;;;;;;;45.12;24.92;;;;;;;2.42;87.57;98479.23;1705642;83;21063;-78
2022/12/05 06:33:41;;;;;;;48.23;25.72;;;;;;;2.52;87.77;98484.15;1711021;83;21553;-76
2022/12/05 06:36:11;;;;;;;49.15;26.75;;;;;;;2.55;87.61;98484.16;1704885;83;21007;-78
2022/12/05 06:38:39;;;;;;;51.00;26.33;;;;;;;2.60;87.30;98488.59;1705075;83;21020;-76
2022/12/05 06:41:10;;;;;;;49.45;25.27;;;;;;;2.58;87.23;98482.89;1705200;83;21076;-76
2022/12/05 06:43:36;;;;;;;47.62;25.75;;;;;;;2.60;87.41;98490.32;1709198;83;21035;-77
2022/12/05 06:46:08;;;;;;;46.95;26.60;;;;;;;2.69;87.71;98489.56;1706894;83;20991;-77
2022/12/05 06:48:37;;;;;;;50.20;26.87;;;;;;;2.72;87.52;98485.64;1704973;83;21023;-77
2022/12/05 06:51:05;;;;;;;46.48;26.00;;;;;;;2.75;87.48;98490.47;1706063;83;21031;-77
2022/12/05 06:53:32;;;;;;;49.27;26.75;;;;;;;2.83;87.64;98492.30;1717838;83;20998;-77
2022/12/05 06:56:03;;;;;;;51.98;28.35;;;;;;;2.91;87.73;98497.19;1706075;83;20997;-77
2022/12/05 06:58:31;;;;;;;46.73;26.93;;;;;;;2.98;87.83;98493.75;1706092;83;21001;-77
2022/12/05 07:03:43;;;;;;;44.20;26.07;;;;;;;3.07;87.31;98492.09;1718347;82;21061;-77
2022/12/05 07:06:10;;;;;;;49.67;28.23;;;;;;;3.08;87.25;98497.77;1717559;82;21033;-77
2022/12/05 07:08:36;;;;;;;47.65;26.68;;;;;;;3.08;86.95;98497.77;1706269;83;20981;-77
2022/12/05 07:11:03;;;;;;;51.23;27.93;;;;;;;3.10;87.05;98505.19;1706249;83;21470;-77
2022/12/05 07:13:31;;;;;;;51.77;30.12;;;;;;;3.10;86.90;98502.56;1721342;83;21748;-77
2022/12/05 07:16:01;;;;;;;46.50;29.00;;;;;;;3.09;86.50;98507.37;1705963;83;21407;-76
2022/12/05 07:18:28;;;;;;;54.03;30.57;;;;;;;3.06;86.37;98512.14;1705859;83;21040;-76
2022/12/05 07:21:01;;;;;;;52.10;28.17;;;;;;;3.00;86.38;98521.27;1712219;82;21394;-76
2022/12/05 07:23:28;;;;;;;53.85;31.75;;;;;;;2.98;86.43;98512.08;1705534;83;21095;-76
2022/12/05 07:25:56;;;;;;;54.08;30.68;;;;;;;2.97;86.23;98519.91;1706130;83;20949;-77
2022/12/05 07:28:26;;;;;;;54.23;30.90;;;;;;;2.92;86.19;98518.58;1709252;82;21037;-76
2022/12/05 07:31:08;;;;;;;56.73;31.95;;;;;;;2.87;86.08;98521.58;1719409;83;22182;-76
2022/12/05 07:33:38;;;;;;;57.60;32.85;;;;;;;2.81;85.99;98528.93;1689909;84;20972;-78
2022/12/05 07:36:13;;;;;;;56.23;31.57;;;;;;;2.77;86.33;98516.67;1715746;83;21413;-77
2022/12/05 07:38:41;;;;;;;166.92;81.60;;;;;;;2.80;86.34;98526.29;1699622;83;21123;-78
2022/12/05 07:41:15;;;;;;;62.50;33.70;;;;;;;2.76;86.30;98522.77;1699504;83;21496;-78
2022/12/05 07:43:42;;;;;;;52.05;30.57;;;;;;;2.74;86.11;98518.82;1695913;83;21020;-78
2022/12/05 07:46:12;;;;;;;51.18;30.25;;;;;;;2.70;86.11;98524.02;1699406;83;20988;-78
2022/12/05 07:48:41;;;;;;;58.65;31.65;;;;;;;2.74;86.52;98519.27;1699749;83;21027;-78
2022/12/05 07:51:09;;;;;;;51.95;30.88;;;;;;;2.77;86.54;98524.52;1700073;83;21066;-78
2022/12/05 07:53:40;;;;;;;50.03;29.95;;;;;;;2.81;86.68;98528.04;1698073;83;21102;-79
2022/12/05 07:56:09;;;;;;;52.67;30.70;;;;;;;2.84;86.65;98533.32;1699612;83;21031;-79
2022/12/05 07:58:37;;;;;;;48.63;28.70;;;;;;;2.84;86.29;98526.36;1699623;83;20952;-78
2022/12/05 08:01:23;;;;;;;46.33;27.35;;;;;;;2.85;86.44;98529.83;1697438;83;21112;-78
2022/12/05 08:03:53;;;;;;;39.60;23.02;;;;;;;2.86;86.38;98529.85;1699660;83;21430;-77
2022/12/05 08:06:24;;;;;;;37.58;21.75;;;;;;;2.88;86.53;98532.49;1699657;83;21004;-77
2022/12/05 08:08:52;;;;;;;35.33;20.00;;;;;;;2.90;86.29;98534.27;1699654;84;21012;-77
2022/12/05 08:11:25;;;;;;;32.42;20.50;;;;;;;2.89;86.30;98529.90;1698119;83;21050;-77
2022/12/05 08:13:53;;;;;;;34.63;18.67;;;;;;;2.90;86.52;98532.06;1698621;83;21004;-76
2022/12/05 08:16:26;;;;;;;33.25;21.02;;;;;;;2.90;86.42;98535.98;1699687;83;21003;-77
2022/12/05 08:19:00;;;;;;;35.73;20.40;;;;;;;2.88;86.30;98532.08;1699001;83;21015;-77
2022/12/05 08:21:34;;;;;;;34.00;21.25;;;;;;;2.86;86.20;98530.30;1698757;83;21103;-77
2022/12/05 08:24:07;;;;;;;37.58;20.77;;;;;;;2.85;86.21;98537.27;1699725;83;21039;-76
2022/12/05 08:26:35;;;;;;;36.42;21.45;;;;;;;2.83;86.44;98535.05;1698033;84;21103;-76
2022/12/05 08:29:10;;;;;;;41.05;23.05;;;;;;;2.85;86.96;98537.27;1680291;83;20992;-76
2022/12/05 08:31:48;;;;;;;42.27;23.70;;;;;;;2.88;87.32;98540.34;1703469;83;21060;-76
2022/12/05 08:34:19;;;;;;;44.77;26.12;;;;;;;2.89;87.25;98536.86;1688322;83;21073;-76
2022/12/05 08:36:48;;;;;;;40.05;25.57;;;;;;;2.91;87.50;98541.70;1725424;83;21015;-77
2022/12/05 08:39:38;;;;;;;40.80;24.70;;;;;;;2.94;87.75;98539.55;1647332;86;21031;-77
2022/12/05 08:42:05;;;;;;;43.35;25.80;;;;;;;2.95;87.67;98537.36;1652268;85;21407;-78
2022/12/05 08:44:34;;;;;;;41.10;25.52;;;;;;;2.93;87.58;98538.66;1677286;85;21103;-78
2022/12/05 08:47:01;;;;;;;47.20;27.25;;;;;;;2.95;87.89;98532.13;1685569;83;20975;-78
2022/12/05 08:49:30;;;;;;;40.38;24.60;;;;;;;2.96;87.43;98532.56;1685517;85;21010;-77
2022/12/05 08:51:58;;;;;;;51.08;27.15;;;;;;;2.94;87.69;98537.78;1693738;83;21026;-78
2022/12/05 08:54:25;;;;;;;46.68;26.25;;;;;;;2.95;87.50;98535.60;1685726;83;21053;-78
2022/12/05 08:56:52;;;;;;;50.48;27.50;;;;;;;2.95;87.46;98538.22;1685620;85;20991;-78
2022/12/05 08:59:19;;;;;;;51.10;29.02;;;;;;;2.97;87.62;98537.83;1695168;83;21427;-77
2022/12/05 09:01:45;;;;;;;55.43;29.72;;;;;;;3.03;87.69;98535.25;1681698;84;20980;-78
2022/12/05 09:04:12;;;;;;;54.08;29.70;;;;;;;3.09;88.17;98524.39;1682534;85;20960;-78
2022/12/05 09:06:41;;;;;;;58.42;30.55;;;;;;;3.14;88.49;98533.17;1704716;84;21047;-77
2022/12/05 09:09:11;;;;;;;58.17;29.02;;;;;;;3.21;88.51;98528.86;1682082;84;20991;-79
2022/12/05 09:11:45;;;;;;;53.70;28.75;;;;;;;3.33;88.43;98529.41;1686759;84;21380;-80
2022/12/05 09:14:12;;;;;;;50.12;27.67;;;;;;;3.36;88.36;98521.13;1696181;84;21068;-78
2022/12/05 09:16:40;;;;;;;49.45;28.40;;;;;;;3.41;88.52;98511.56;1685215;84;20956;-77
2022/12/05 09:19:23;;;;;;;50.90;26.73;;;;;;;3.48;88.74;98522.11;1683591;84;20933;-77
2022/12/05 09:21:50;;;;;;;40.92;25.00;;;;;;;3.57;88.54;98520.84;1691659;84;21012;-77
2022/12/05 09:24:18;;;;;;;42.40;24.23;;;;;;;3.60;88.53;98520.88;1679776;84;21083;-77
2022/12/05 09:26:48;;;;;;;47.15;23.95;;;;;;;3.65;88.56;98514.37;1682816;84;21019;-77
2022/12/05 09:29:15;;;;;;;43.17;25.70;;;;;;;3.73;88.47;98511.80;1683626;84;21013;-77
2022/12/05 09:31:43;;;;;;;44.30;25.23;;;;;;;3.74;88.36;98511.78;1685724;84;21388;-77
2022/12/05 09:34:10;;;;;;;43.13;24.32;;;;;;;3.74;88.22;98506.53;1683174;84;21015;-77
2022/12/05 09:36:37;;;;;;;43.52;23.55;;;;;;;3.74;88.27;98512.23;1696012;84;21021;-77
2022/12/05 09:39:07;;;;;;;43.15;22.77;;;;;;;3.74;88.42;98507.84;1700679;84;21441;-77
2022/12/05 09:42:06;;;;;;;39.48;22.67;;;;;;;3.75;88.57;98505.69;1679978;84;21061;-77
2022/12/05 09:44:57;;;;;;;38.35;22.02;;;;;;;3.79;88.57;98500.03;1675951;84;21072;-77
2022/12/05 09:47:42;;;;;;;36.70;21.48;;;;;;;3.77;88.22;98496.50;1683203;84;21087;-77
2022/12/05 09:50:23;;;;;;;37.17;22.17;;;;;;;3.73;88.24;98487.75;1686643;84;21080;-76
2022/12/05 09:53:07;;;;;;;45.10;22.98;;;;;;;3.69;88.11;98478.99;1681803;84;20977;-76
2022/12/05 09:55:54;;;;;;;40.35;23.65;;;;;;;3.67;88.17;98476.81;1681767;84;21028;-77
2022/12/05 09:58:46;;;;;;;50.45;24.30;;;;;;;3.67;88.22;98468.95;1680210;84;21008;-76
2022/12/05 10:01:47;;;;;;;42.17;23.87;;;;;;;3.70;88.35;98471.56;1688088;84;21026;-76
2022/12/05 10:04:37;;;;;;;44.93;24.18;;;;;;;3.73;88.74;98460.67;1660033;85;21095;-77
2022/12/05 10:07:34;;;;;;;40.25;23.15;;;;;;;3.69;88.40;98472.44;1683301;84;21022;-77
2022/12/05 10:10:32;;;;;;;40.70;23.47;;;;;;;3.79;88.56;98460.70;1683494;84;21047;-76
2022/12/05 10:13:23;;;;;;;41.08;23.65;;;;;;;3.89;88.41;98459.88;1656782;85;20993;-77
2022/12/05 10:16:06;;;;;;;39.67;24.15;;;;;;;4.00;88.44;98459.05;1650362;85;21445;-77
2022/12/05 10:18:46;;;;;;;53.78;25.00;;;;;;;4.11;88.72;98459.09;1654477;85;21457;-77
2022/12/05 10:21:25;;;;;;;32.55;19.25;;;;;;;4.14;88.38;98465.23;1660325;85;21078;-78
2022/12/05 10:23:59;;;;;;;32.75;19.65;;;;;;;4.05;87.67;98463.88;1665012;85;21095;-78
2022/12/05 10:26:44;;;;;;;34.95;20.02;;;;;;;4.02;88.21;98461.25;1663161;85;21012;-78
2022/12/05 10:29:24;;;;;;;34.23;21.95;;;;;;;4.07;88.31;98457.77;1641414;85;21088;-78
2022/12/05 10:31:55;;;;;;;40.05;20.27;;;;;;;4.09;88.32;98459.09;1643398;85;21022;-78
2022/12/05 10:34:39;;;;;;;44.27;22.20;;;;;;;4.12;88.29;98457.80;1643496;85;21086;-78
2022/12/05 10:37:19;;;;;;;48.17;23.35;;;;;;;4.13;88.27;98459.55;1648800;85;21178;-77
2022/12/05 10:39:50;;;;;;;39.92;23.77;;;;;;;4.16;88.23;98454.74;1641462;85;21069;-77
2022/12/05 10:42:26;;;;;;;49.42;24.63;;;;;;;4.14;88.21;98451.22;1663396;83;21465;-79
2022/12/05 10:44:58;;;;;;;53.98;28.02;;;;;;;4.14;88.08;98450.80;1659298;85;21067;-77
2022/12/05 10:47:26;;;;;;;50.30;28.73;;;;;;;4.12;88.02;98455.59;1654329;85;21004;-77
2022/12/05 10:49:56;;;;;;;58.30;29.27;;;;;;;4.04;87.80;98460.39;1659943;85;21370;-79
2022/12/05 10:52:23;;;;;;;58.63;29.15;;;;;;;4.00;87.93;98456.42;1631135;87;22200;-77
2022/12/05 10:54:58;;;;;;;51.50;27.07;;;;;;;3.98;87.98;98449.84;1666487;86;21014;-78
2022/12/05 10:57:29;;;;;;;54.25;28.92;;;;;;;3.95;87.85;98451.17;1664922;86;20997;-78
2022/12/05 10:59:56;;;;;;;53.90;29.07;;;;;;;3.95;88.32;98444.16;1660101;86;21019;-77
2022/12/05 11:02:32;;;;;;;59.00;31.45;;;;;;;3.99;87.94;98446.80;1654630;86;21067;-77
2022/12/05 11:05:01;;;;;;;53.83;25.70;;;;;;;3.90;87.66;98436.70;1649955;86;21006;-76
2022/12/05 11:07:41;;;;;;;44.83;25.32;;;;;;;3.85;87.86;98437.13;1620721;88;20999;-76
2022/12/05 11:10:36;;;;;;;53.55;29.05;;;;;;;3.85;88.28;98434.95;1648521;86;21384;-77
2022/12/05 11:13:14;;;;;;;60.33;24.45;;;;;;;3.91;88.20;98430.59;1635728;87;21015;-73
2022/12/05 11:15:46;;;;;;;45.98;25.12;;;;;;;3.95;88.25;98435.44;1651648;85;21503;-73
2022/12/05 11:18:24;;;;;;;43.65;23.35;;;;;;;3.98;88.36;98430.18;1653974;85;21490;-74
2022/12/05 11:20:51;;;;;;;37.38;22.05;;;;;;;3.97;88.29;98421.88;1651388;84;21085;-76
2022/12/05 11:23:28;;;;;;;39.23;21.42;;;;;;;4.03;88.48;98419.73;1626515;85;21468;-76
2022/12/05 11:25:57;;;;;;;44.15;23.10;;;;;;;4.01;88.37;98424.95;1661615;85;21010;-76
2022/12/05 11:28:35;;;;;;;36.00;22.37;;;;;;;3.98;88.99;98430.64;1657489;85;21009;-75
2022/12/05 11:31:07;;;;;;;39.23;23.27;;;;;;;4.00;88.78;98420.59;1653374;85;21456;-75
2022/12/05 11:33:36;;;;;;;37.65;22.20;;;;;;;4.04;88.98;98420.16;1653381;85;21022;-75
2022/12/05 11:36:22;;;;;;;40.60;22.45;;;;;;;4.07;88.89;98416.25;1652519;85;21515;-76
2022/12/05 11:38:51;;;;;;;46.37;22.45;;;;;;;4.08;88.96;98417.99;1657007;85;21014;-76
2022/12/05 11:41:56;;;;;;;45.12;21.25;;;;;;;4.08;89.28;98414.91;1627947;86;21376;-75
2022/12/05 11:44:35;;;;;;;;;;;;;;;4.07;89.17;98411.86;1633972;87;21003;-74
2022/12/05 11:47:29;;;;;;;41.30;22.67;;;;;;;4.09;89.01;98407.94;1639498;85;20107;-75
2022/12/05 11:50:25;;;;;;;34.23;18.77;;;;;;;4.12;88.80;98405.75;1652638;85;20994;-75
2022/12/05 11:53:03;;;;;;;33.02;18.37;;;;;;;4.16;88.93;98400.51;1647581;85;21010;-75
2022/12/05 11:55:40;;;;;;;31.33;18.17;;;;;;;4.22;88.90;98397.03;1647045;85;21045;-75
2022/12/05 11:58:38;;;;;;;29.02;17.70;;;;;;;4.32;89.42;98390.94;1651192;85;21052;-75
2022/12/05 12:01:25;;;;;;;34.58;18.55;;;;;;;4.43;89.42;98387.03;1651506;85;21011;-75
2022/12/05 12:04:18;;;;;;;33.67;21.17;;;;;;;4.52;89.31;98387.47;1650634;85;21033;-75